createdAt,value
2019-02-14T00:01:11.983Z,26.37
2019-02-14T00:03:42.335Z,26.20
2019-02-14T00:06:12.761Z,25.47
2019-02-14T00:08:43.161Z,27.37
2019-02-14T00:11:13.495Z,23.93
2019-02-14T00:13:43.827Z,26.37
2019-02-14T00:16:14.194Z,32.17
2019-02-14T00:18:44.591Z,30.30
2019-02-14T00:21:17.213Z,27.27
2019-02-14T00:23:47.531Z,24.50
2019-02-14T00:26:17.834Z,25.63
2019-02-14T00:28:48.177Z,24.37
2019-02-14T00:31:18.525Z,25.40
2019-02-14T00:33:48.898Z,24.47
2019-02-14T00:36:19.258Z,23.47
2019-02-14T00:38:49.531Z,24.07
2019-02-14T00:41:19.881Z,24.53
2019-02-14T00:43:50.230Z,25.43
2019-02-14T00:46:20.621Z,23.50
2019-02-14T00:48:52.555Z,26.37
2019-02-14T00:51:22.871Z,25.17
2019-02-14T00:53:53.192Z,23.57
2019-02-14T00:56:23.656Z,23.50
2019-02-14T00:58:53.998Z,24.10
2019-02-14T01:01:24.289Z,22.80
2019-02-14T01:03:55.764Z,22.87
2019-02-14T01:06:26.162Z,21.30
2019-02-14T01:08:56.490Z,24.27
2019-02-14T01:11:26.794Z,25.70
2019-02-14T01:13:57.055Z,22.50
2019-02-14T01:16:27.405Z,23.00
2019-02-14T01:18:57.826Z,22.43
2019-02-14T01:21:28.177Z,23.27
2019-02-14T01:23:58.841Z,20.30
2019-02-14T01:26:29.427Z,20.87
2019-02-14T01:28:59.769Z,22.70
2019-02-14T01:31:31.246Z,22.07
2019-02-14T01:34:02.619Z,21.93
2019-02-14T01:36:32.901Z,22.00
2019-02-14T01:39:04.934Z,27.73
2019-02-14T01:41:35.782Z,25.43
2019-02-14T01:44:07.250Z,24.07
2019-02-14T01:46:40.107Z,27.50
2019-02-14T01:49:10.443Z,24.07
2019-02-14T01:51:40.769Z,20.63
2019-02-14T01:54:11.214Z,20.47
2019-02-14T01:56:42.798Z,21.87
2019-02-14T01:59:13.189Z,25.43
2019-02-14T02:01:43.635Z,26.97
2019-02-14T02:04:13.962Z,27.53
2019-02-14T02:06:44.341Z,21.20
2019-02-14T02:09:14.651Z,19.73
2019-02-14T02:11:45.029Z,19.30
2019-02-14T02:14:16.156Z,19.47
2019-02-14T02:16:46.611Z,19.57
2019-02-14T02:19:17.008Z,18.67
2019-02-14T02:21:47.377Z,21.73
2019-02-14T02:24:18.277Z,18.90
2019-02-14T02:26:48.655Z,30.23
2019-02-14T02:29:19.058Z,29.27
2019-02-14T02:31:49.472Z,33.80
2019-02-14T02:34:21.070Z,34.47
2019-02-14T02:36:51.392Z,33.73
2019-02-14T02:39:21.713Z,34.33
2019-02-14T02:41:52.036Z,30.23
2019-02-14T02:44:22.368Z,30.33
2019-02-14T02:46:52.732Z,29.83
2019-02-14T02:49:23.075Z,33.13
2019-02-14T02:51:53.557Z,30.73
2019-02-14T02:54:23.830Z,30.57
2019-02-14T02:56:54.128Z,30.53
2019-02-14T02:59:24.611Z,29.90
2019-02-14T03:01:54.926Z,29.30
2019-02-14T03:04:25.220Z,32.63
2019-02-14T03:06:55.603Z,25.13
2019-02-14T03:09:28.517Z,23.90
2019-02-14T03:11:59.098Z,21.83
2019-02-14T03:14:29.447Z,21.73
2019-02-14T03:16:59.801Z,22.73
2019-02-14T03:19:31.212Z,21.33
2019-02-14T03:22:01.628Z,23.40
2019-02-14T03:24:32.217Z,25.73
2019-02-14T03:27:02.506Z,28.37
2019-02-14T03:29:32.795Z,31.40
2019-02-14T03:32:03.145Z,34.87
2019-02-14T03:34:33.530Z,32.90
2019-02-14T03:37:03.933Z,33.77
2019-02-14T03:39:34.331Z,26.27
2019-02-14T03:42:04.632Z,29.23
2019-02-14T03:44:34.991Z,37.03
2019-02-14T03:47:05.378Z,38.33
2019-02-14T03:49:35.885Z,38.53
2019-02-14T03:52:06.236Z,34.47
2019-02-14T03:54:36.561Z,33.67
2019-02-14T03:57:06.925Z,34.90
2019-02-14T03:59:37.823Z,33.43
2019-02-14T04:02:08.133Z,35.47
2019-02-14T04:04:40.510Z,31.20
2019-02-14T04:07:10.987Z,33.33
2019-02-14T04:09:41.438Z,31.97
2019-02-14T04:12:11.791Z,30.83
2019-02-14T04:14:42.162Z,31.13
2019-02-14T04:17:12.488Z,30.17
2019-02-14T04:19:42.794Z,31.50
2019-02-14T04:22:13.039Z,33.63
2019-02-14T04:24:44.358Z,35.53
2019-02-14T04:27:14.761Z,37.13
2019-02-14T04:29:45.194Z,38.57
2019-02-14T04:32:15.542Z,43.77
2019-02-14T04:34:45.857Z,43.17
2019-02-14T04:37:16.273Z,43.40
2019-02-14T04:39:46.635Z,45.27
2019-02-14T04:42:17.589Z,46.90
2019-02-14T04:44:47.974Z,48.70
2019-02-14T04:47:18.301Z,48.63
2019-02-14T04:49:49.991Z,48.90
2019-02-14T04:52:20.342Z,45.27
2019-02-14T04:54:50.635Z,44.40
2019-02-14T04:57:21.081Z,48.00
2019-02-14T04:59:52.499Z,44.87
2019-02-14T05:02:22.892Z,49.53
2019-02-14T05:04:53.384Z,47.23
2019-02-14T05:07:25.145Z,51.03
2019-02-14T05:09:55.972Z,48.77
2019-02-14T05:12:26.336Z,46.20
2019-02-14T05:14:56.688Z,47.40
2019-02-14T05:17:26.989Z,47.33
2019-02-14T05:19:57.313Z,52.60
2019-02-14T05:22:27.626Z,47.30
2019-02-14T05:24:57.981Z,49.30
2019-02-14T05:27:28.490Z,44.10
2019-02-14T05:29:58.848Z,48.20
2019-02-14T05:32:30.832Z,48.47
2019-02-14T05:35:01.229Z,51.50
2019-02-14T05:37:31.660Z,52.03
2019-02-14T05:40:01.931Z,52.97
2019-02-14T05:42:32.352Z,52.33
2019-02-14T05:45:04.594Z,53.40
2019-02-14T05:47:35.061Z,52.20
2019-02-14T05:50:06.061Z,49.30
2019-02-14T05:52:36.588Z,50.67
2019-02-14T05:55:08.184Z,47.50
2019-02-14T05:57:38.583Z,46.20
2019-02-14T06:00:10.984Z,41.07
2019-02-14T06:02:41.413Z,44.33
2019-02-14T06:05:13.061Z,44.50
2019-02-14T06:07:43.454Z,36.03
2019-02-14T06:10:13.794Z,34.83
2019-02-14T06:12:45.800Z,31.83
2019-02-14T06:15:17.301Z,34.23
2019-02-14T06:17:47.698Z,33.40
2019-02-14T06:20:18.060Z,34.53
2019-02-14T06:22:48.460Z,33.00
2019-02-14T06:25:18.814Z,35.87
2019-02-14T06:27:49.251Z,36.63
2019-02-14T06:30:19.676Z,40.00
2019-02-14T06:32:50.162Z,39.63
2019-02-14T06:35:22.372Z,42.57
2019-02-14T06:37:52.933Z,39.67
2019-02-14T06:40:23.262Z,39.00
2019-02-14T06:42:53.690Z,38.20
2019-02-14T06:45:26.192Z,51.13
2019-02-14T06:47:56.208Z,61.40
2019-02-14T06:50:34.580Z,53.10
2019-02-14T06:52:59.042Z,67.50
2019-02-14T06:55:29.411Z,69.03
2019-02-14T06:57:59.906Z,73.73
2019-02-14T07:00:30.314Z,66.03
2019-02-14T07:03:00.712Z,66.97
2019-02-14T07:05:31.048Z,81.33
2019-02-14T07:08:01.516Z,73.40
2019-02-14T07:10:32.001Z,75.63
2019-02-14T07:13:02.410Z,67.23
2019-02-14T07:15:32.803Z,66.90
2019-02-14T07:18:03.285Z,60.03
2019-02-14T07:20:33.795Z,56.80
2019-02-14T07:23:04.385Z,67.40
2019-02-14T07:25:36.372Z,60.30
2019-02-14T07:28:08.210Z,50.33
2019-02-14T07:30:38.618Z,51.63
2019-02-14T07:33:08.977Z,54.17
2019-02-14T07:35:40.077Z,58.20
2019-02-14T07:38:12.688Z,58.97
2019-02-14T07:40:43.052Z,57.70
2019-02-14T07:43:13.430Z,63.80
2019-02-14T07:45:43.822Z,65.53
2019-02-14T07:48:14.300Z,70.00
2019-02-14T07:50:44.711Z,74.30
2019-02-14T07:53:15.259Z,63.37
2019-02-14T07:55:45.770Z,57.93
2019-02-14T07:58:16.628Z,59.57
2019-02-14T08:00:49.295Z,57.73
2019-02-14T08:03:19.934Z,55.60
2019-02-14T08:05:50.698Z,53.23
2019-02-14T08:08:21.756Z,58.60
2019-02-14T08:10:52.546Z,57.33
2019-02-14T08:13:22.972Z,65.77
2019-02-14T08:15:56.162Z,59.57
2019-02-14T08:18:26.877Z,51.20
2019-02-14T08:20:57.225Z,45.87
2019-02-14T08:23:28.575Z,48.43
2019-02-14T08:25:59.255Z,49.97
2019-02-14T08:28:37.096Z,55.53
2019-02-14T08:31:07.604Z,49.50
2019-02-14T08:33:38.002Z,53.57
2019-02-14T08:36:08.516Z,59.87
2019-02-14T08:38:38.990Z,56.97
2019-02-14T08:41:09.410Z,51.47
2019-02-14T08:43:40.870Z,53.57
2019-02-14T08:46:11.318Z,49.70
2019-02-14T08:48:41.637Z,58.93
2019-02-14T08:51:15.655Z,60.13
2019-02-14T08:53:46.033Z,57.07
2019-02-14T08:56:16.402Z,70.67
2019-02-14T08:58:46.956Z,76.40
2019-02-14T09:01:17.362Z,72.47
2019-02-14T09:03:49.994Z,69.73
2019-02-14T09:06:20.341Z,71.83
2019-02-14T09:08:50.812Z,67.40
2019-02-14T09:11:23.278Z,61.10
2019-02-14T09:13:53.799Z,59.13
2019-02-14T09:16:24.130Z,56.33
2019-02-14T09:18:56.760Z,66.37
2019-02-14T09:21:29.071Z,63.13
2019-02-14T09:23:59.708Z,67.67
2019-02-14T09:26:30.419Z,65.57
2019-02-14T09:29:00.656Z,67.43
2019-02-14T09:31:31.038Z,62.90
2019-02-14T09:34:01.435Z,62.10
2019-02-14T09:36:31.921Z,56.17
2019-02-14T09:39:02.416Z,48.43
2019-02-14T09:41:34.267Z,60.23
2019-02-14T09:44:04.774Z,50.17
2019-02-14T09:46:35.335Z,52.33
2019-02-14T09:49:05.724Z,53.60
2019-02-14T09:51:36.178Z,49.33
2019-02-14T09:54:07.037Z,46.07
2019-02-14T09:56:37.595Z,50.83
2019-02-14T09:59:08.249Z,49.33
2019-02-14T10:01:38.795Z,42.40
2019-02-14T10:04:09.549Z,54.03
2019-02-14T10:06:39.954Z,52.30
2019-02-14T10:09:10.556Z,39.37
2019-02-14T10:11:41.187Z,44.27
2019-02-14T10:14:11.998Z,29.77
2019-02-14T10:16:42.482Z,31.10
2019-02-14T10:19:12.951Z,30.10
2019-02-14T10:21:44.653Z,27.80
2019-02-14T10:24:15.091Z,29.47
2019-02-14T10:26:45.590Z,30.87
2019-02-14T10:29:16.074Z,34.53
2019-02-14T10:31:46.994Z,35.30
2019-02-14T10:34:17.405Z,34.87
2019-02-14T10:36:47.851Z,27.13
2019-02-14T10:39:18.221Z,25.67
2019-02-14T10:41:48.691Z,24.00
2019-02-14T10:44:19.219Z,24.00
2019-02-14T10:46:49.542Z,26.13
2019-02-14T10:49:19.942Z,23.90
2019-02-14T10:51:50.374Z,27.53
2019-02-14T10:54:20.817Z,31.90
2019-02-14T10:56:51.219Z,43.03
2019-02-14T10:59:21.616Z,42.03
2019-02-14T11:01:51.966Z,41.63
2019-02-14T11:04:22.294Z,37.77
2019-02-14T11:06:52.689Z,40.00
2019-02-14T11:09:23.011Z,37.33
2019-02-14T11:11:53.335Z,41.13
2019-02-14T11:14:29.232Z,33.90
2019-02-14T11:16:55.781Z,38.77
2019-02-14T11:19:26.131Z,44.70
2019-02-14T11:21:56.496Z,37.13
2019-02-14T11:24:28.018Z,38.80
2019-02-14T11:26:58.389Z,37.93
2019-02-14T11:29:29.972Z,33.23
2019-02-14T11:32:01.473Z,36.57
2019-02-14T11:34:32.001Z,31.53
2019-02-14T11:37:02.397Z,32.27
2019-02-14T11:39:32.911Z,29.57
2019-02-14T11:42:03.353Z,28.73
2019-02-14T11:44:39.635Z,28.90
2019-02-14T11:47:07.802Z,32.03
2019-02-14T11:49:38.278Z,35.73
2019-02-14T11:52:08.834Z,34.37
2019-02-14T11:54:39.331Z,37.63
2019-02-14T11:57:09.809Z,31.10
2019-02-14T11:59:40.599Z,33.70
2019-02-14T12:02:11.210Z,36.40
2019-02-14T12:04:41.525Z,37.97
2019-02-14T12:07:11.944Z,42.93
2019-02-14T12:09:42.333Z,33.93
2019-02-14T12:12:12.804Z,32.30
2019-02-14T12:14:43.253Z,36.13
2019-02-14T12:17:13.749Z,34.13
2019-02-14T12:19:44.199Z,32.93
2019-02-14T12:22:16.853Z,32.50
2019-02-14T12:24:47.255Z,32.27
2019-02-14T12:27:17.688Z,29.50
2019-02-14T12:29:48.019Z,35.80
2019-02-14T12:32:18.437Z,34.40
2019-02-14T12:34:48.837Z,33.00
2019-02-14T12:37:19.265Z,37.50
2019-02-14T12:39:49.749Z,37.07
2019-02-14T12:42:20.176Z,35.77
2019-02-14T12:44:50.719Z,34.80
2019-02-14T12:47:21.107Z,40.30
2019-02-14T12:49:53.415Z,43.47
2019-02-14T12:52:23.869Z,45.30
2019-02-14T12:54:54.288Z,46.23
2019-02-14T12:57:24.605Z,46.73
2019-02-14T12:59:54.894Z,38.17
2019-02-14T13:02:25.346Z,43.27
2019-02-14T13:04:55.773Z,43.33
2019-02-14T13:07:26.117Z,40.90
2019-02-14T13:09:56.476Z,43.47
2019-02-14T13:12:27.993Z,41.93
2019-02-14T13:14:58.445Z,46.63
2019-02-14T13:17:28.880Z,44.07
2019-02-14T13:20:00.870Z,39.83
2019-02-14T13:22:31.408Z,40.13
2019-02-14T13:25:01.866Z,38.67
2019-02-14T13:27:32.258Z,38.53
2019-02-14T13:30:02.653Z,39.50
2019-02-14T13:32:33.066Z,40.37
2019-02-14T13:35:03.555Z,48.77
2019-02-14T13:37:34.003Z,47.60
2019-02-14T13:40:04.700Z,45.23
2019-02-14T13:42:37.271Z,39.03
2019-02-14T13:45:10.576Z,46.90
2019-02-14T13:47:41.019Z,42.70
2019-02-14T13:50:12.144Z,44.43
2019-02-14T13:52:45.429Z,41.90
2019-02-14T13:55:15.809Z,37.80
2019-02-14T13:57:46.287Z,39.37
2019-02-14T14:00:22.587Z,40.40
2019-02-14T14:02:52.933Z,40.77
2019-02-14T14:05:23.791Z,42.03
2019-02-14T14:07:54.100Z,48.87
2019-02-14T14:10:24.597Z,49.30
2019-02-14T14:12:55.053Z,41.97
2019-02-14T14:15:25.512Z,49.33
2019-02-14T14:17:56.125Z,44.63
2019-02-14T14:20:26.575Z,59.57
2019-02-14T14:22:58.171Z,48.50
2019-02-14T14:25:28.642Z,48.80
2019-02-14T14:27:59.075Z,54.97
2019-02-14T14:30:29.521Z,48.30
2019-02-14T14:32:59.931Z,50.37
2019-02-14T14:35:30.298Z,42.30
2019-02-14T14:38:03.078Z,43.37
2019-02-14T14:40:33.623Z,47.30
2019-02-14T14:43:21.836Z,48.73
2019-02-14T14:46:14.031Z,50.37
2019-02-14T14:48:44.711Z,47.17
2019-02-14T14:51:18.985Z,57.17
2019-02-14T14:53:49.334Z,50.43
2019-02-14T14:56:20.089Z,52.30
2019-02-14T14:58:50.477Z,50.87
2019-02-14T15:01:21.019Z,49.60
2019-02-14T15:03:52.239Z,52.27
2019-02-14T15:06:22.758Z,54.67
2019-02-14T15:08:53.111Z,51.50
2019-02-14T15:11:23.414Z,55.33
2019-02-14T15:13:54.832Z,54.47
2019-02-14T15:16:25.320Z,54.93
2019-02-14T15:18:55.847Z,55.67
2019-02-14T15:21:26.219Z,48.20
2019-02-14T15:32:39.908Z,51.70
2019-02-14T15:35:10.528Z,56.67
2019-02-14T15:46:45.567Z,42.07
2019-02-14T15:49:16.229Z,46.10
2019-02-14T15:51:46.736Z,45.30
2019-02-14T15:54:17.133Z,58.67
2019-02-14T15:56:48.139Z,53.87
2019-02-14T15:59:21.040Z,50.70
2019-02-14T16:01:53.567Z,49.07
2019-02-14T16:04:24.295Z,45.83
2019-02-14T16:06:54.896Z,46.27
2019-02-14T16:09:25.482Z,46.07
2019-02-14T16:11:57.765Z,45.63
2019-02-14T16:14:28.134Z,48.17
2019-02-14T16:16:58.579Z,44.20
2019-02-14T16:19:29.041Z,45.97
2019-02-14T16:21:59.792Z,41.33
2019-02-14T16:24:30.312Z,48.03
2019-02-14T16:27:03.616Z,47.83
2019-02-14T16:29:38.297Z,47.70
2019-02-14T16:41:37.025Z,56.03
2019-02-14T16:44:08.767Z,46.17
2019-02-14T16:46:39.140Z,53.00
2019-02-14T16:49:09.548Z,47.17
2019-02-14T16:51:39.927Z,49.03
2019-02-14T16:54:10.492Z,47.70
2019-02-14T16:56:41.033Z,52.23
2019-02-14T16:59:11.508Z,52.83
2019-02-14T17:01:44.885Z,49.77
2019-02-14T17:04:23.730Z,52.50
2019-02-14T17:06:54.135Z,55.27
2019-02-14T17:09:25.267Z,57.53
2019-02-14T17:11:55.574Z,56.70
2019-02-14T17:14:27.812Z,58.57
2019-02-14T17:16:58.123Z,60.77
2019-02-14T17:19:30.743Z,58.30
2019-02-14T17:22:01.168Z,62.53
2019-02-14T17:24:31.656Z,55.80
2019-02-14T17:27:02.049Z,50.97
2019-02-14T17:29:32.475Z,51.47
2019-02-14T17:32:03.183Z,55.83
2019-02-14T17:34:33.719Z,55.00
2019-02-14T17:37:04.165Z,51.27
2019-02-14T17:39:37.704Z,54.77
2019-02-14T17:42:08.078Z,52.37
2019-02-14T17:44:38.701Z,54.60
2019-02-14T17:47:09.090Z,54.10
2019-02-14T17:49:40.448Z,53.30
2019-02-14T17:52:10.978Z,53.43
2019-02-14T17:54:41.402Z,54.27
2019-02-14T17:57:11.778Z,51.57
2019-02-14T17:59:43.815Z,52.03
2019-02-14T18:02:15.245Z,50.10
2019-02-14T18:04:46.707Z,51.23
2019-02-14T18:07:18.091Z,50.03
2019-02-14T18:09:49.811Z,53.77
2019-02-14T18:12:22.799Z,54.73
2019-02-14T18:14:55.252Z,54.60
2019-02-14T18:17:27.367Z,55.57
2019-02-14T18:20:01.594Z,55.10
2019-02-14T18:22:32.538Z,54.57
2019-02-14T18:25:09.670Z,53.57
2019-02-14T18:27:43.227Z,50.43
2019-02-14T18:30:41.839Z,48.40
2019-02-14T18:33:12.366Z,43.33
2019-02-14T18:35:47.872Z,46.03
2019-02-14T18:38:20.456Z,45.10
2019-02-14T18:40:53.053Z,47.47
2019-02-14T18:43:27.989Z,44.67
2019-02-14T18:45:58.860Z,45.90
2019-02-14T18:48:37.159Z,47.20
2019-02-14T18:51:15.935Z,48.17
2019-02-14T18:53:48.106Z,47.47
2019-02-14T18:56:21.210Z,47.60
2019-02-14T18:58:56.935Z,49.47
2019-02-14T19:01:30.312Z,50.67
2019-02-14T19:04:13.777Z,49.37
2019-02-14T19:06:49.457Z,51.30
2019-02-14T19:09:24.481Z,48.77
2019-02-14T19:11:55.770Z,49.67
2019-02-14T19:14:32.461Z,50.37
2019-02-14T19:17:09.624Z,49.67
2019-02-14T19:19:41.385Z,51.83
2019-02-14T19:22:16.182Z,51.30
2019-02-14T19:24:48.701Z,53.17
2019-02-14T19:27:19.593Z,50.73
2019-02-14T19:29:52.414Z,49.60
2019-02-14T19:32:29.942Z,45.87
2019-02-14T19:35:08.082Z,46.83
2019-02-14T19:37:44.295Z,46.83
2019-02-14T19:40:15.102Z,46.90
2019-02-14T19:42:54.497Z,45.30
2019-02-14T19:45:25.045Z,45.87
2019-02-14T19:47:57.537Z,48.60
2019-02-14T19:50:27.929Z,49.80
2019-02-14T19:52:59.371Z,48.17
2019-02-14T19:55:31.823Z,44.77
2019-02-14T19:58:03.767Z,47.13
2019-02-14T20:00:37.141Z,44.57
2019-02-14T20:03:11.540Z,47.00
2019-02-14T20:05:45.188Z,44.83
2019-02-14T20:08:21.177Z,46.87
2019-02-14T20:11:01.135Z,47.33
2019-02-14T20:13:36.123Z,48.80
2019-02-14T20:16:11.540Z,47.70
2019-02-14T20:18:45.037Z,49.53
2019-02-14T20:21:16.009Z,49.70
2019-02-14T20:23:49.386Z,54.67
2019-02-14T20:26:22.237Z,58.93
2019-02-14T20:28:58.352Z,59.40
2019-02-14T20:31:28.917Z,58.77
2019-02-14T20:33:59.846Z,57.63
2019-02-14T20:36:33.860Z,55.53
2019-02-14T20:39:09.514Z,57.43
2019-02-14T20:41:46.015Z,54.73
2019-02-14T20:44:18.872Z,60.27
2019-02-14T20:46:50.923Z,61.83
2019-02-14T20:49:22.415Z,64.43
2019-02-14T20:51:56.287Z,66.40
2019-02-14T20:54:27.601Z,65.10
2019-02-14T20:57:02.099Z,62.43
2019-02-14T20:59:32.651Z,60.83
2019-02-14T21:02:03.109Z,62.93
2019-02-14T21:04:33.583Z,61.40
2019-02-14T21:07:05.445Z,57.47
2019-02-14T21:09:41.252Z,55.87
2019-02-14T21:12:16.453Z,54.77
2019-02-14T21:14:51.880Z,58.30
2019-02-14T21:17:23.112Z,53.87
2019-02-14T21:19:54.859Z,55.13
2019-02-14T21:22:27.645Z,60.10
2019-02-14T21:24:58.197Z,59.70
2019-02-14T21:27:28.726Z,55.93
2019-02-14T21:30:00.803Z,52.63
2019-02-14T21:32:34.560Z,52.40
2019-02-14T21:35:06.778Z,54.10
2019-02-14T21:37:37.393Z,50.93
2019-02-14T21:40:10.602Z,52.67
2019-02-14T21:42:45.695Z,52.87
2019-02-14T21:45:16.082Z,49.53
2019-02-14T21:47:48.007Z,53.90
2019-02-14T21:50:21.424Z,55.63
2019-02-14T21:52:58.039Z,55.57
2019-02-14T21:55:28.449Z,59.57
2019-02-14T21:58:03.935Z,62.67
2019-02-14T22:00:33.474Z,55.97
2019-02-14T22:03:04.536Z,53.27
2019-02-14T22:05:39.836Z,53.07
2019-02-14T22:08:13.108Z,56.43
2019-02-14T22:10:44.028Z,58.77
2019-02-14T22:13:14.906Z,54.30
2019-02-14T22:15:45.467Z,54.60
2019-02-14T22:18:16.308Z,57.17
2019-02-14T22:20:50.322Z,59.63
2019-02-14T22:23:24.218Z,56.57
2019-02-14T22:25:56.514Z,54.87
2019-02-14T22:28:29.164Z,52.63
2019-02-14T22:31:00.837Z,55.33
2019-02-14T22:33:31.305Z,53.30
2019-02-14T22:36:01.807Z,54.40
2019-02-14T22:38:32.368Z,53.47
2019-02-14T22:41:04.340Z,53.90
2019-02-14T22:43:35.366Z,52.30
2019-02-14T22:46:05.865Z,54.30
2019-02-14T22:48:39.758Z,55.80
2019-02-14T22:51:10.184Z,54.33
2019-02-14T22:53:42.775Z,55.77
2019-02-14T22:56:14.304Z,55.30
2019-02-14T22:58:44.688Z,54.07
2019-02-14T23:01:21.450Z,55.37
2019-02-14T23:03:52.314Z,60.27
2019-02-14T23:06:25.735Z,58.53
2019-02-14T23:08:56.099Z,54.73
2019-02-14T23:11:29.283Z,53.30
2019-02-14T23:14:00.529Z,51.43
2019-02-14T23:16:30.972Z,51.10
2019-02-14T23:19:10.455Z,50.17
2019-02-14T23:21:41.571Z,50.87
2019-02-14T23:24:14.753Z,49.50
2019-02-14T23:26:45.193Z,49.77
2019-02-14T23:29:19.554Z,49.17
2019-02-14T23:31:54.139Z,43.90
2019-02-14T23:34:26.409Z,44.17
2019-02-14T23:36:58.212Z,45.20
2019-02-14T23:39:29.618Z,43.97
2019-02-14T23:42:00.089Z,46.70
2019-02-14T23:44:30.563Z,45.70
2019-02-14T23:47:00.885Z,47.57
2019-02-14T23:49:31.464Z,43.63
2019-02-14T23:52:03.763Z,38.27
2019-02-14T23:54:34.318Z,41.83
2019-02-14T23:57:06.423Z,41.30
2019-02-14T23:59:38.044Z,40.20
